Ainsworth, NE

9:48 AM CST on January 23, 2017 (GMT -0600)
Ainsworth Municipal | | Change Station
Active Advisory: Winter Storm Watch

Elev 2589 ft 42.58 °N, 99.99 °W | Updated 13 minutes ago

Overcast
Overcast
28 °F
Feels Like 21 °F
N
6
Wind Variable Wind from SSE

Today
High -- | Low -- °F
--% Chance of Precip.
Yesterday
High -- | Low -- °F
Precip. -- in
Pressure 29.77 in
Visibility 10.0 miles
Clouds Mostly Cloudy 9000 ft
Windchill 21 °F
Dew Point 27 °F
Humidity 99%
Rainfall 0.00 in
Snow Depth Not available.
8:01 AM 5:41 PM
Waning Crescent, 18% visible
METAR KANW 231535Z AUTO 16005KT 10SM BKN090 M02/M03 A2977 RMK AO2 T10251027
Pressure 29.77 in
Visibility 10.0 miles
Clouds Mostly Cloudy 9000 ft
Windchill 21 °F
Dew Point 27 °F
Humidity 99%
Rainfall 0.00 in
Snow Depth Not available.
8:01 AM 5:41 PM
Waning Crescent, 18% visible
METAR KANW 231535Z AUTO 16005KT 10SM BKN090 M02/M03 A2977 RMK AO2 T10251027

Get Your Daily Forecast Email!

Thanks for signing up!

Be on the lookout for a verification email in your inbox.

You'll start receiving the daily forecast at 8 AM.

×

10-Day Weather Forecast

Almanac

Astronomy

Jan. 23, 2017 Rise Set
Actual Time
Civil Twilight
Nautical Twilight
Astronomical Twilight
Moon
Length of Visible Light
Length of Day
Tomorrow will be .
, % of the Moon is Illuminated

Today's Extremes

State Highs State Lows

Community

WunderPhotos

Upload Photos

1,962,540 photos uploaded!

WunderBlog® & News

Nearby

Air Quality

  Air Quality AQ Index Pollutant
Not available.

Snow Depth

Station Depth Elevation

Earthquake Activity

City Distance Mag. Time & Date
Minimum magnitude displayed is 2.5.

Coastal Water Temperatures

Place Temperature

Stations

Nearby Weather Stations

Station Location Temp. Windchill Dew Point Humidity Wind Precip. Elev Updated Type
                   

Watches & Warnings

Winter Storm Watch
Issued: 2:31 AM MST Jan. 23, 2017 – National Weather Service

... Winter Storm Watch remains in effect from late tonight through
Wednesday morning...

* timing... snow will develop across far northwest Nebraska late
Monday night. Snow will continue Tuesday into the overnight.

* Snow accumulations... from 4 to 6 inches possible, with locally
high amounts.

* Wind... northwest winds gusting up to 35 mph developing late
Tuesday morning and continuing through Tuesday night.

* Impacts... hazardous driving conditions due to reduced visiblity from
falling and blowing snow. Slippery and snow packed roads will be
possible.

Precautionary/preparedness actions...

A Winter Storm Watch means there is potential for significant
snow and wind that may impact travel... continue to monitor the
latest forecasts.